Time,TemperatureF,DewpointF,PressureIn,WindDirection,WindDirectionDegrees,WindSpeedMPH,WindSpeedGustMPH,Humidity,HourlyPrecipIn,Conditions,Clouds,dailyrainin,SoftwareType,DateUTC
2013-02-24 00:01:00,75.0,72.0,29.95,South,171,2.0,5.0,89,0.00,,,0.00,,2013-02-24 05:01:00,
2013-02-24 00:11:00,75.0,72.0,29.95,South,171,2.0,5.0,89,0.00,,,0.00,,2013-02-24 05:11:00,
2013-02-24 00:22:00,74.0,71.0,29.95,South,172,2.0,5.0,89,0.00,,,0.00,,2013-02-24 05:22:00,
2013-02-24 00:32:00,74.0,71.0,29.95,SSE,148,1.0,4.0,90,0.00,,,0.00,,2013-02-24 05:32:00,
2013-02-24 00:42:00,74.0,71.0,29.95,SSE,148,1.0,4.0,90,0.00,,,0.00,,2013-02-24 05:42:00,
2013-02-24 00:52:00,74.0,71.0,29.95,SSE,148,0.0,3.0,90,0.00,,,0.00,,2013-02-24 05:52:00,
2013-02-24 01:02:00,74.0,71.0,29.95,SSE,161,2.0,5.0,90,0.00,,,0.00,,2013-02-24 06:02:00,
2013-02-24 01:11:00,74.0,71.0,29.95,SSE,161,2.0,5.0,90,0.00,,,0.00,,2013-02-24 06:11:00,
2013-02-24 01:21:00,74.0,71.0,29.95,SSE,159,2.0,5.0,90,0.00,,,0.00,,2013-02-24 06:21:00,
2013-02-24 01:32:00,74.0,71.0,29.95,SSE,167,3.0,7.0,91,0.00,,,0.00,,2013-02-24 06:32:00,
2013-02-24 01:42:00,74.0,71.0,29.95,SSE,167,3.0,7.0,91,0.00,,,0.00,,2013-02-24 06:42:00,
2013-02-24 01:52:00,74.0,71.0,29.95,South,178,3.0,6.0,91,0.00,,,0.00,,2013-02-24 06:52:00,
2013-02-24 02:01:00,74.0,71.0,29.94,South,173,2.0,4.0,91,0.00,,,0.00,,2013-02-24 07:01:00,
2013-02-24 02:12:00,74.0,71.0,29.94,South,173,2.0,4.0,91,0.00,,,0.00,,2013-02-24 07:12:00,
2013-02-24 02:21:00,74.0,71.0,29.94,South,174,3.0,6.0,91,0.00,,,0.00,,2013-02-24 07:21:00,
2013-02-24 02:32:00,74.0,72.0,29.94,South,174,0.0,4.0,92,0.00,,,0.00,,2013-02-24 07:32:00,
2013-02-24 02:42:00,74.0,72.0,29.94,South,174,0.0,4.0,92,0.00,,,0.00,,2013-02-24 07:42:00,
2013-02-24 02:51:00,74.0,72.0,29.93,South,176,1.0,5.0,92,0.00,,,0.00,,2013-02-24 07:51:00,
2013-02-24 03:01:00,74.0,72.0,29.93,South,176,0.0,4.0,92,0.00,,,0.00,,2013-02-24 08:01:00,
2013-02-24 03:11:00,74.0,72.0,29.93,South,176,0.0,4.0,92,0.00,,,0.00,,2013-02-24 08:11:00,
2013-02-24 03:22:00,74.0,72.0,29.93,South,176,0.0,4.0,92,0.00,,,0.00,,2013-02-24 08:22:00,
2013-02-24 03:32:00,73.0,71.0,29.92,South,176,0.0,0.0,92,0.00,,,0.00,,2013-02-24 08:32:00,
2013-02-24 03:42:00,73.0,71.0,29.92,South,176,0.0,0.0,92,0.00,,,0.00,,2013-02-24 08:42:00,
2013-02-24 03:54:00,73.0,71.0,29.92,South,176,0.0,0.0,92,0.00,,,0.00,,2013-02-24 08:54:00,
2013-02-24 04:01:00,73.0,71.0,29.92,South,176,0.0,3.0,92,0.00,,,0.00,,2013-02-24 09:01:00,
2013-02-24 04:11:00,73.0,71.0,29.92,South,176,0.0,3.0,92,0.00,,,0.00,,2013-02-24 09:11:00,
2013-02-24 04:21:00,73.0,71.0,29.92,South,176,0.0,2.0,92,0.00,,,0.00,,2013-02-24 09:21:00,
2013-02-24 04:32:00,73.0,71.0,29.91,South,176,0.0,3.0,92,0.00,,,0.00,,2013-02-24 09:32:00,
2013-02-24 04:42:00,73.0,71.0,29.91,South,176,0.0,3.0,92,0.00,,,0.00,,2013-02-24 09:42:00,
2013-02-24 04:51:00,73.0,71.0,29.91,South,176,0.0,2.0,92,0.00,,,0.00,,2013-02-24 09:51:00,
2013-02-24 05:01:00,73.0,71.0,29.91,South,176,0.0,2.0,92,0.00,,,0.00,,2013-02-24 10:01:00,
2013-02-24 05:11:00,73.0,71.0,29.91,South,176,0.0,1.0,93,0.00,,,0.00,,2013-02-24 10:11:00,
2013-02-24 05:21:00,73.0,71.0,29.91,South,176,0.0,1.0,93,0.00,,,0.00,,2013-02-24 10:21:00,
2013-02-24 05:32:00,73.0,71.0,29.91,South,173,0.0,4.0,93,0.00,,,0.00,,2013-02-24 10:32:00,
2013-02-24 05:42:00,73.0,71.0,29.91,South,173,0.0,4.0,93,0.00,,,0.00,,2013-02-24 10:42:00,
2013-02-24 05:51:00,73.0,71.0,29.92,South,173,0.0,2.0,93,0.00,,,0.00,,2013-02-24 10:51:00,
2013-02-24 06:01:00,73.0,71.0,29.92,South,173,0.0,4.0,93,0.00,,,0.00,,2013-02-24 11:01:00,
2013-02-24 06:11:00,73.0,71.0,29.92,South,173,0.0,4.0,93,0.00,,,0.00,,2013-02-24 11:11:00,
2013-02-24 06:22:00,73.0,71.0,29.92,South,173,2.0,5.0,93,0.00,,,0.00,,2013-02-24 11:22:00,
2013-02-24 06:32:00,73.0,71.0,29.92,South,182,2.0,6.0,93,0.00,,,0.00,,2013-02-24 11:32:00,
2013-02-24 06:42:00,73.0,71.0,29.92,South,182,2.0,6.0,93,0.00,,,0.00,,2013-02-24 11:42:00,
2013-02-24 06:52:00,73.0,71.0,29.93,South,182,0.0,3.0,93,0.00,,,0.00,,2013-02-24 11:52:00,
2013-02-24 07:02:00,73.0,71.0,29.93,South,182,0.0,4.0,93,0.00,,,0.00,,2013-02-24 12:02:00,
2013-02-24 07:11:00,73.0,71.0,29.93,South,182,0.0,4.0,93,0.00,,,0.00,,2013-02-24 12:11:00,
2013-02-24 07:22:00,73.0,71.0,29.94,South,182,0.0,2.0,93,0.00,,,0.00,,2013-02-24 12:22:00,
2013-02-24 07:32:00,73.0,71.0,29.94,South,182,0.0,1.0,94,0.00,,,0.00,,2013-02-24 12:32:00,
2013-02-24 07:46:00,73.0,71.0,29.94,South,182,0.0,1.0,94,0.00,,,0.00,,2013-02-24 12:46:00,
2013-02-24 07:55:00,73.0,71.0,29.94,South,177,4.0,7.0,94,0.00,,,0.00,,2013-02-24 12:55:00,
2013-02-24 08:15:00,73.0,71.0,29.94,South,190,3.0,6.0,94,0.00,,,0.00,,2013-02-24 13:15:00,
2013-02-24 08:26:00,73.0,71.0,29.94,South,178,4.0,6.0,94,0.00,,,0.00,,2013-02-24 13:26:00,
2013-02-24 08:34:00,74.0,72.0,29.94,South,184,4.0,7.0,93,0.00,,,0.00,,2013-02-24 13:34:00,
2013-02-24 08:45:00,74.0,72.0,29.94,South,184,4.0,7.0,93,0.00,,,0.00,,2013-02-24 13:45:00,
2013-02-24 08:53:00,74.0,72.0,29.95,South,185,4.0,8.0,92,0.00,,,0.00,,2013-02-24 13:53:00,
2013-02-24 09:05:00,75.0,72.0,29.96,West,277,1.0,7.0,91,0.00,,,0.00,,2013-02-24 14:05:00,
2013-02-24 09:14:00,75.0,72.0,29.96,West,277,1.0,7.0,91,0.00,,,0.00,,2013-02-24 14:14:00,
2013-02-24 09:25:00,75.0,72.0,29.96,West,277,1.0,7.0,91,0.00,,,0.00,,2013-02-24 14:25:00,
2013-02-24 09:34:00,76.0,72.0,29.97,South,171,2.0,6.0,88,0.00,,,0.00,,2013-02-24 14:34:00,
2013-02-24 09:45:00,76.0,72.0,29.97,South,171,2.0,6.0,88,0.00,,,0.00,,2013-02-24 14:45:00,
2013-02-24 09:55:00,77.0,72.0,29.97,South,178,0.0,4.0,85,0.00,,,0.00,,2013-02-24 14:55:00,
2013-02-24 10:04:00,78.0,72.0,29.97,South,180,0.0,3.0,83,0.00,,,0.00,,2013-02-24 15:04:00,
2013-02-24 10:14:00,78.0,72.0,29.97,SSW,192,0.0,4.0,81,0.00,,,0.00,,2013-02-24 15:14:00,
2013-02-24 10:23:00,78.0,72.0,29.97,SSW,192,0.0,4.0,81,0.00,,,0.00,,2013-02-24 15:23:00,
2013-02-24 10:32:00,79.0,72.0,29.97,South,171,0.0,5.0,79,0.00,,,0.00,,2013-02-24 15:32:00,
2013-02-24 10:42:00,79.0,72.0,29.97,South,171,0.0,5.0,79,0.00,,,0.00,,2013-02-24 15:42:00,
2013-02-24 10:52:00,79.0,71.0,29.98,NW,323,1.0,5.0,76,0.00,,,0.00,,2013-02-24 15:52:00,
2013-02-24 11:01:00,80.0,71.0,29.98,SSE,167,3.0,6.0,75,0.00,,,0.00,,2013-02-24 16:01:00,
2013-02-24 11:12:00,80.0,71.0,29.97,South,180,0.0,5.0,75,0.00,,,0.00,,2013-02-24 16:12:00,
2013-02-24 11:21:00,80.0,71.0,29.97,South,180,0.0,5.0,75,0.00,,,0.00,,2013-02-24 16:21:00,
2013-02-24 11:32:00,79.0,73.0,29.97,East,96,3.0,7.0,83,0.00,,,0.00,,2013-02-24 16:32:00,
2013-02-24 11:42:00,79.0,73.0,29.97,East,96,3.0,7.0,83,0.00,,,0.00,,2013-02-24 16:42:00,
2013-02-24 11:52:00,80.0,74.0,29.97,South,174,3.0,8.0,81,0.00,,,0.00,,2013-02-24 16:52:00,
2013-02-24 12:01:00,79.0,73.0,29.96,ESE,102,3.0,5.0,81,0.00,,,0.00,,2013-02-24 17:01:00,
2013-02-24 12:11:00,79.0,73.0,29.96,ESE,102,3.0,5.0,81,0.00,,,0.00,,2013-02-24 17:11:00,
2013-02-24 12:21:00,78.0,72.0,29.96,SSE,165,4.0,7.0,81,0.00,,,0.00,,2013-02-24 17:21:00,
2013-02-24 12:32:00,78.0,72.0,29.95,ESE,118,4.0,8.0,82,0.00,,,0.00,,2013-02-24 17:32:00,
2013-02-24 12:42:00,78.0,72.0,29.95,ESE,118,4.0,8.0,82,0.00,,,0.00,,2013-02-24 17:42:00,
2013-02-24 12:52:00,79.0,73.0,29.94,SSE,154,4.0,8.0,81,0.00,,,0.00,,2013-02-24 17:52:00,
2013-02-24 13:02:00,79.0,72.0,29.93,SSE,148,6.0,9.0,79,0.00,,,0.00,,2013-02-24 18:02:00,
2013-02-24 13:11:00,79.0,72.0,29.93,SSE,148,6.0,9.0,79,0.00,,,0.00,,2013-02-24 18:11:00,
2013-02-24 13:22:00,79.0,72.0,29.93,SSE,157,6.0,11.0,79,0.00,,,0.00,,2013-02-24 18:22:00,
2013-02-24 13:32:00,80.0,72.0,29.92,SSE,159,4.0,10.0,77,0.00,,,0.00,,2013-02-24 18:32:00,
2013-02-24 13:42:00,80.0,72.0,29.92,SSE,159,4.0,10.0,77,0.00,,,0.00,,2013-02-24 18:42:00,
2013-02-24 13:52:00,79.0,73.0,29.92,South,182,4.0,16.0,81,0.00,,,0.00,,2013-02-24 18:52:00,
2013-02-24 14:01:00,79.0,72.0,29.91,SSE,168,7.0,15.0,80,0.00,,,0.00,,2013-02-24 19:01:00,
2013-02-24 14:12:00,79.0,72.0,29.91,SSE,168,7.0,15.0,80,0.00,,,0.00,,2013-02-24 19:12:00,
2013-02-24 14:22:00,79.0,72.0,29.90,South,174,6.0,15.0,80,0.00,,,0.00,,2013-02-24 19:22:00,
2013-02-24 14:32:00,80.0,72.0,29.90,South,180,7.0,13.0,78,0.00,,,0.00,,2013-02-24 19:32:00,
2013-02-24 14:42:00,80.0,72.0,29.90,South,180,7.0,13.0,78,0.00,,,0.00,,2013-02-24 19:42:00,
2013-02-24 14:52:00,80.0,73.0,29.90,South,176,5.0,10.0,80,0.00,,,0.00,,2013-02-24 19:52:00,
2013-02-24 15:02:00,79.0,73.0,29.89,South,184,7.0,15.0,82,0.00,,,0.00,,2013-02-24 20:02:00,
2013-02-24 15:11:00,79.0,73.0,29.89,South,184,7.0,15.0,82,0.00,,,0.00,,2013-02-24 20:11:00,
2013-02-24 15:21:00,78.0,73.0,29.89,SSE,160,7.0,14.0,84,0.00,,,0.00,,2013-02-24 20:21:00,
2013-02-24 15:32:00,78.0,73.0,29.89,SSE,148,3.0,14.0,85,0.00,,,0.00,,2013-02-24 20:32:00,
2013-02-24 15:42:00,78.0,73.0,29.89,SSE,148,3.0,14.0,85,0.00,,,0.00,,2013-02-24 20:42:00,
2013-02-24 15:52:00,78.0,73.0,29.89,SE,137,5.0,11.0,85,0.00,,,0.00,,2013-02-24 20:52:00,
2013-02-24 16:02:00,78.0,73.0,29.89,South,169,7.0,14.0,84,0.00,,,0.00,,2013-02-24 21:02:00,
2013-02-24 16:11:00,78.0,73.0,29.89,South,169,7.0,14.0,84,0.00,,,0.00,,2013-02-24 21:11:00,
2013-02-24 16:21:00,78.0,73.0,29.88,SSE,150,7.0,12.0,85,0.00,,,0.00,,2013-02-24 21:21:00,
2013-02-24 16:32:00,78.0,73.0,29.89,SSE,163,5.0,11.0,85,0.00,,,0.00,,2013-02-24 21:32:00,
2013-02-24 16:42:00,78.0,73.0,29.89,SSE,163,5.0,11.0,85,0.00,,,0.00,,2013-02-24 21:42:00,
2013-02-24 16:52:00,77.0,72.0,29.89,SE,144,4.0,11.0,86,0.00,,,0.00,,2013-02-24 21:52:00,
2013-02-24 17:01:00,78.0,73.0,29.89,SE,146,6.0,14.0,86,0.00,,,0.00,,2013-02-24 22:01:00,
2013-02-24 17:11:00,78.0,73.0,29.89,SE,146,6.0,14.0,86,0.00,,,0.00,,2013-02-24 22:11:00,
2013-02-24 17:21:00,77.0,73.0,29.89,SSE,147,6.0,13.0,87,0.00,,,0.00,,2013-02-24 22:21:00,
2013-02-24 17:32:00,77.0,73.0,29.89,SSE,162,3.0,10.0,88,0.00,,,0.00,,2013-02-24 22:32:00,
2013-02-24 17:42:00,77.0,73.0,29.89,SSE,162,3.0,10.0,88,0.00,,,0.00,,2013-02-24 22:42:00,
2013-02-24 17:52:00,77.0,73.0,29.89,SSE,159,6.0,11.0,88,0.00,,,0.00,,2013-02-24 22:52:00,
2013-02-24 18:02:00,77.0,73.0,29.89,SE,145,5.0,12.0,88,0.00,,,0.00,,2013-02-24 23:02:00,
2013-02-24 18:11:00,77.0,73.0,29.89,SE,145,5.0,12.0,88,0.00,,,0.00,,2013-02-24 23:11:00,
2013-02-24 18:21:00,77.0,73.0,29.90,SE,127,4.0,10.0,88,0.00,,,0.00,,2013-02-24 23:21:00,
2013-02-24 18:32:00,77.0,73.0,29.90,SE,127,4.0,10.0,88,0.00,,,0.00,,2013-02-24 23:32:00,
2013-02-24 18:42:00,77.0,73.0,29.90,SE,127,4.0,10.0,88,0.00,,,0.00,,2013-02-24 23:42:00,
2013-02-24 18:52:00,76.0,72.0,29.90,SSE,148,5.0,9.0,88,0.00,,,0.00,,2013-02-24 23:52:00,
2013-02-24 19:02:00,76.0,73.0,29.90,SSE,163,4.0,10.0,89,0.00,,,0.00,,2013-02-25 00:02:00,
2013-02-24 19:11:00,76.0,73.0,29.90,SSE,163,4.0,10.0,89,0.00,,,0.00,,2013-02-25 00:11:00,
2013-02-24 19:21:00,76.0,73.0,29.90,South,189,4.0,9.0,89,0.00,,,0.00,,2013-02-25 00:21:00,
2013-02-24 19:32:00,76.0,73.0,29.90,South,189,4.0,9.0,89,0.00,,,0.00,,2013-02-25 00:32:00,
2013-02-24 19:42:00,76.0,73.0,29.90,South,189,4.0,9.0,89,0.00,,,0.00,,2013-02-25 00:42:00,
2013-02-24 19:52:00,76.0,73.0,29.90,SSE,162,5.0,8.0,90,0.00,,,0.00,,2013-02-25 00:52:00,
2013-02-24 20:01:00,76.0,73.0,29.90,SSE,162,5.0,8.0,90,0.00,,,0.00,,2013-02-25 01:01:00,
2013-02-24 20:11:00,75.0,72.0,29.91,South,169,4.0,8.0,90,0.00,,,0.00,,2013-02-25 01:11:00,
2013-02-24 20:21:00,75.0,72.0,29.91,South,169,4.0,8.0,90,0.00,,,0.00,,2013-02-25 01:21:00,
2013-02-24 20:32:00,75.0,72.0,29.91,South,177,3.0,7.0,90,0.00,,,0.00,,2013-02-25 01:32:00,
2013-02-24 20:42:00,75.0,72.0,29.91,South,177,3.0,7.0,90,0.00,,,0.00,,2013-02-25 01:42:00,
2013-02-24 20:52:00,75.0,72.0,29.92,SE,143,0.0,4.0,90,0.00,,,0.00,,2013-02-25 01:52:00,
2013-02-24 21:01:00,75.0,72.0,29.92,SSE,157,0.0,3.0,89,0.00,,,0.00,,2013-02-25 02:01:00,
2013-02-24 21:11:00,75.0,72.0,29.92,SSE,157,0.0,3.0,89,0.00,,,0.00,,2013-02-25 02:11:00,
2013-02-24 21:21:00,75.0,72.0,29.92,SSE,157,0.0,3.0,89,0.00,,,0.00,,2013-02-25 02:21:00,
2013-02-24 21:32:00,75.0,72.0,29.92,SSE,157,0.0,1.0,89,0.00,,,0.00,,2013-02-25 02:32:00,
2013-02-24 21:42:00,75.0,72.0,29.92,SSE,157,0.0,1.0,89,0.00,,,0.00,,2013-02-25 02:42:00,
2013-02-24 21:52:00,75.0,72.0,29.92,SSE,157,0.0,1.0,89,0.00,,,0.00,,2013-02-25 02:52:00,
2013-02-24 22:02:00,75.0,72.0,29.93,SSE,157,0.0,0.0,89,0.00,,,0.00,,2013-02-25 03:02:00,
2013-02-24 22:11:00,75.0,72.0,29.93,SSE,157,0.0,0.0,89,0.00,,,0.00,,2013-02-25 03:11:00,
2013-02-24 22:21:00,75.0,72.0,29.93,SSE,157,0.0,0.0,89,0.00,,,0.00,,2013-02-25 03:21:00,
2013-02-24 22:32:00,74.0,71.0,29.92,SSE,157,0.0,0.0,89,0.00,,,0.00,,2013-02-25 03:32:00,
2013-02-24 22:42:00,74.0,71.0,29.92,SSE,157,0.0,0.0,89,0.00,,,0.00,,2013-02-25 03:42:00,
2013-02-24 22:51:00,74.0,71.0,29.92,SSE,157,0.0,0.0,89,0.00,,,0.00,,2013-02-25 03:51:00,
2013-02-24 23:02:00,74.0,71.0,29.92,SSE,157,0.0,0.0,89,0.00,,,0.00,,2013-02-25 04:02:00,
2013-02-24 23:11:00,74.0,71.0,29.92,SSE,157,0.0,0.0,89,0.00,,,0.00,,2013-02-25 04:11:00,
2013-02-24 23:21:00,74.0,71.0,29.91,SSE,157,0.0,0.0,89,0.00,,,0.00,,2013-02-25 04:21:00,
2013-02-24 23:32:00,74.0,71.0,29.92,SSE,157,0.0,0.0,89,0.00,,,0.00,,2013-02-25 04:32:00,
2013-02-24 23:42:00,74.0,71.0,29.92,SSE,157,0.0,0.0,89,0.00,,,0.00,,2013-02-25 04:42:00,
2013-02-24 23:52:00,73.0,69.0,29.91,SSE,157,0.0,0.0,88,0.00,,,0.00,,2013-02-25 04:52:00,